createdAt,value
2022-10-20T00:01:43.293Z,2.80
2022-10-20T00:06:46.348Z,3.10
2022-10-20T00:11:49.254Z,3.70
2022-10-20T00:16:52.053Z,3.90
2022-10-20T00:21:55.241Z,3.60
2022-10-20T00:32:00.766Z,4.60
2022-10-20T00:37:03.770Z,4.50
2022-10-20T00:42:06.675Z,3.50
2022-10-20T00:47:16.887Z,3.40
2022-10-20T00:52:22.380Z,4.30
2022-10-20T00:57:25.933Z,3.90
2022-10-20T01:02:28.731Z,2.80
2022-10-20T01:07:31.541Z,3.30
2022-10-20T01:13:05.158Z,3.50
2022-10-20T01:23:41.684Z,3.10
2022-10-20T01:28:58.312Z,3.20
2022-10-20T01:34:48.072Z,3.10
2022-10-20T01:40:00.402Z,3.00
2022-10-20T01:45:05.794Z,3.00
2022-10-20T01:50:11.309Z,2.80
2022-10-20T01:55:18.673Z,3.20
2022-10-20T02:00:21.579Z,3.20
2022-10-20T02:05:45.368Z,3.80
2022-10-20T02:10:52.576Z,3.90
2022-10-20T02:15:58.755Z,3.80
2022-10-20T02:21:04.118Z,4.10
2022-10-20T02:26:09.068Z,3.80
2022-10-20T02:31:12.277Z,4.00
2022-10-20T02:41:23.312Z,3.80
2022-10-20T02:46:26.209Z,4.60
2022-10-20T02:51:29.012Z,4.40
2022-10-20T02:56:31.812Z,4.10
2022-10-20T03:01:34.648Z,4.70
2022-10-20T03:06:37.517Z,4.70
2022-10-20T03:11:40.318Z,4.50
2022-10-20T03:16:43.117Z,5.50
2022-10-20T03:21:46.944Z,5.00
2022-10-20T03:26:49.743Z,5.20
2022-10-20T03:31:52.548Z,6.50
2022-10-20T03:36:55.345Z,6.40
2022-10-20T03:41:58.149Z,5.70
2022-10-20T03:47:00.950Z,6.70
2022-10-20T03:52:04.365Z,7.20
2022-10-20T03:57:08.189Z,6.30
2022-10-20T04:02:23.892Z,6.70
2022-10-20T04:07:26.798Z,7.50
2022-10-20T04:12:29.656Z,6.90
2022-10-20T04:17:32.444Z,7.10
2022-10-20T04:22:35.491Z,8.10
2022-10-20T04:27:40.115Z,7.20
2022-10-20T04:32:42.948Z,7.00
2022-10-20T04:37:45.752Z,8.00
2022-10-20T04:42:48.555Z,7.60
2022-10-20T04:47:51.462Z,5.80
2022-10-20T04:52:54.258Z,8.00
2022-10-20T04:57:57.061Z,7.60
2022-10-20T05:02:59.942Z,8.50
2022-10-20T05:08:02.870Z,8.00
2022-10-20T05:13:05.666Z,8.50
2022-10-20T05:18:08.467Z,9.80
2022-10-20T05:23:11.269Z,8.00
2022-10-20T05:28:14.139Z,6.70
2022-10-20T05:33:16.973Z,9.70
2022-10-20T05:38:19.776Z,6.40
2022-10-20T05:43:22.681Z,6.30
2022-10-20T05:48:25.686Z,11.10
2022-10-20T05:53:28.487Z,8.80
2022-10-20T05:58:31.298Z,9.30
2022-10-20T06:03:35.384Z,8.90
2022-10-20T06:08:39.299Z,6.80
2022-10-20T06:13:51.685Z,7.60
2022-10-20T06:18:59.840Z,7.80
2022-10-20T06:24:06.663Z,12.50
2022-10-20T06:29:13.861Z,12.10
2022-10-20T06:34:21.447Z,12.70
2022-10-20T06:39:29.851Z,16.60
2022-10-20T06:44:49.616Z,15.60
2022-10-20T06:49:53.628Z,13.40
2022-10-20T06:54:56.439Z,23.80
2022-10-20T06:59:59.194Z,14.30
2022-10-20T07:05:06.068Z,15.20
2022-10-20T07:10:09.476Z,9.60
2022-10-20T07:15:20.985Z,8.60
2022-10-20T07:20:28.264Z,8.50
2022-10-20T07:25:31.742Z,9.80
2022-10-20T07:30:40.235Z,8.00
2022-10-20T07:35:47.186Z,7.80
2022-10-20T07:40:51.210Z,9.50
2022-10-20T07:45:54.492Z,9.80
2022-10-20T07:51:35.904Z,11.00
2022-10-20T07:56:41.278Z,14.60
2022-10-20T08:01:44.662Z,9.30
2022-10-20T08:11:55.314Z,8.70
2022-10-20T08:17:03.271Z,8.60
2022-10-20T08:22:06.326Z,11.10
2022-10-20T08:27:09.045Z,11.60
2022-10-20T08:32:13.359Z,10.20
2022-10-20T08:37:16.114Z,11.50
2022-10-20T08:42:18.979Z,12.40
2022-10-20T08:52:26.635Z,12.30
2022-10-20T08:57:34.585Z,10.60
2022-10-20T09:02:40.555Z,8.30
2022-10-20T09:07:43.434Z,8.10
2022-10-20T09:12:48.737Z,8.10
2022-10-20T09:18:02.122Z,7.60
2022-10-20T09:23:16.573Z,8.20
2022-10-20T09:28:34.245Z,8.50
2022-10-20T09:33:47.391Z,8.00
2022-10-20T09:38:52.034Z,7.40
2022-10-20T09:44:06.799Z,7.40
2022-10-20T09:49:25.459Z,7.40
2022-10-20T09:54:29.398Z,6.40
2022-10-20T09:59:36.233Z,7.40
2022-10-20T10:04:53.921Z,7.60
2022-10-20T10:10:01.310Z,7.60
2022-10-20T10:15:24.420Z,6.50
2022-10-20T10:20:36.975Z,6.00
2022-10-20T10:25:39.994Z,5.90
2022-10-20T10:30:46.825Z,6.20
2022-10-20T10:35:52.667Z,7.60
2022-10-20T10:46:19.445Z,6.10
2022-10-20T10:51:53.549Z,7.00
2022-10-20T11:03:39.137Z,5.40
2022-10-20T11:19:59.473Z,5.30
2022-10-20T11:25:20.337Z,5.20
2022-10-20T11:30:23.642Z,4.90
2022-10-20T11:35:47.111Z,4.50
2022-10-20T11:41:21.298Z,4.70
2022-10-20T11:46:37.162Z,4.30
2022-10-20T11:51:56.516Z,3.70
2022-10-20T11:57:16.604Z,3.00
2022-10-20T12:02:38.094Z,2.10
2022-10-20T12:08:24.684Z,1.90
2022-10-20T12:13:41.300Z,2.20
2022-10-20T12:19:15.531Z,2.60
2022-10-20T12:24:39.533Z,2.70
2022-10-20T12:29:42.345Z,2.40
2022-10-20T12:34:45.279Z,2.40
2022-10-20T12:39:48.397Z,2.50
2022-10-20T12:44:52.508Z,1.90
2022-10-20T12:49:57.616Z,1.90
2022-10-20T12:55:23.518Z,2.00
2022-10-20T13:00:26.429Z,1.80
2022-10-20T13:05:45.985Z,2.50
2022-10-20T13:10:49.515Z,2.30
2022-10-20T13:15:55.915Z,2.20
2022-10-20T13:21:19.778Z,2.10
2022-10-20T13:32:04.399Z,2.40
2022-10-20T13:37:26.137Z,2.60
2022-10-20T13:42:43.974Z,2.40
2022-10-20T13:48:17.302Z,2.30
2022-10-20T13:53:34.150Z,2.10
2022-10-20T13:58:37.045Z,2.30
2022-10-20T14:03:47.372Z,2.00
2022-10-20T14:13:53.984Z,2.30
2022-10-20T14:19:14.650Z,2.80
2022-10-20T14:24:42.567Z,2.90
2022-10-20T14:29:46.450Z,3.60
2022-10-20T14:34:55.399Z,2.80
2022-10-20T14:40:03.493Z,2.60
2022-10-20T14:45:06.949Z,2.70
2022-10-20T14:50:25.158Z,2.90
2022-10-20T14:55:28.077Z,3.50
2022-10-20T15:00:34.326Z,4.40
2022-10-20T15:05:42.893Z,4.60
2022-10-20T15:10:46.377Z,5.80
2022-10-20T15:15:50.186Z,6.00
2022-10-20T15:20:54.216Z,6.90
2022-10-20T15:26:12.366Z,8.70
2022-10-20T15:31:24.327Z,9.50
2022-10-20T15:36:32.204Z,8.00
2022-10-20T15:41:36.292Z,11.20
2022-10-20T15:46:39.346Z,22.40
2022-10-20T15:51:45.331Z,76.20
2022-10-20T15:56:48.784Z,85.50
2022-10-20T16:01:51.553Z,74.90
2022-10-20T16:06:59.087Z,127.40
2022-10-20T16:12:03.418Z,110.50
2022-10-20T16:17:06.222Z,28.60
2022-10-20T16:22:09.028Z,28.70
2022-10-20T16:27:11.945Z,55.70
2022-10-20T16:32:14.781Z,87.90
2022-10-20T16:37:17.716Z,74.80
2022-10-20T16:42:20.617Z,53.10
2022-10-20T16:47:25.524Z,48.80
2022-10-20T16:52:28.355Z,46.30
2022-10-20T16:57:38.657Z,65.30
2022-10-20T17:02:44.180Z,77.70
2022-10-20T17:07:46.981Z,45.10
2022-10-20T17:17:57.822Z,44.00
2022-10-20T17:23:00.706Z,50.60
2022-10-20T17:28:03.927Z,51.80
2022-10-20T17:33:06.738Z,49.20
2022-10-20T17:38:09.537Z,57.30
2022-10-20T17:43:12.376Z,53.80
2022-10-20T17:48:15.148Z,51.20
2022-10-20T17:53:17.947Z,49.80
2022-10-20T17:58:20.765Z,53.40
2022-10-20T18:03:23.591Z,52.40
2022-10-20T18:08:26.488Z,57.70
2022-10-20T18:13:29.380Z,60.10
2022-10-20T18:18:32.165Z,112.30
2022-10-20T18:23:36.966Z,78.00
2022-10-20T18:28:42.004Z,88.30
2022-10-20T18:33:48.571Z,68.30
2022-10-20T18:38:53.494Z,60.60
2022-10-20T18:43:58.703Z,41.10
2022-10-20T18:49:04.366Z,45.20
2022-10-20T18:54:08.789Z,45.40
2022-10-20T18:59:16.428Z,40.70
2022-10-20T19:04:19.466Z,35.80
2022-10-20T19:09:22.403Z,39.00
2022-10-20T19:14:25.227Z,35.50
2022-10-20T19:19:28.809Z,37.40
2022-10-20T19:24:31.600Z,33.70
2022-10-20T19:29:35.102Z,33.20
2022-10-20T19:34:41.184Z,34.50
2022-10-20T19:39:44.142Z,38.60
2022-10-20T19:44:47.028Z,33.60
2022-10-20T19:49:49.844Z,36.30
2022-10-20T19:54:52.664Z,43.00
2022-10-20T19:59:55.480Z,46.90
2022-10-20T20:04:58.339Z,35.50
2022-10-20T20:10:01.130Z,28.90
2022-10-20T20:15:04.239Z,22.40
2022-10-20T20:20:07.115Z,18.40
2022-10-20T20:25:10.002Z,12.60
2022-10-20T20:30:12.811Z,20.30
2022-10-20T20:35:15.718Z,18.40
2022-10-20T20:40:18.951Z,14.70
2022-10-20T20:50:24.432Z,18.40
2022-10-20T20:55:27.334Z,17.50
2022-10-20T21:00:30.164Z,14.90
2022-10-20T21:05:33.036Z,19.40
2022-10-20T21:10:36.648Z,12.70
2022-10-20T21:15:39.468Z,11.80
2022-10-20T21:20:42.283Z,13.80
2022-10-20T21:25:46.773Z,15.50
2022-10-20T21:30:50.975Z,12.70
2022-10-20T21:35:53.796Z,11.10
2022-10-20T21:41:02.287Z,10.90
2022-10-20T21:46:17.395Z,10.50
2022-10-20T21:51:28.695Z,9.00
2022-10-20T21:56:36.403Z,7.80
2022-10-20T22:01:39.197Z,7.50
2022-10-20T22:06:42.086Z,11.30
2022-10-20T22:11:50.094Z,8.20
2022-10-20T22:16:52.878Z,9.20
2022-10-20T22:27:08.491Z,12.30
2022-10-20T22:32:11.503Z,9.30
2022-10-20T22:37:14.275Z,8.00
2022-10-20T22:42:18.342Z,10.00
2022-10-20T22:47:22.989Z,11.20
2022-10-20T22:52:25.814Z,8.50
2022-10-20T22:57:28.674Z,9.10
2022-10-20T23:02:32.177Z,10.40
2022-10-20T23:07:35.915Z,15.70
2022-10-20T23:12:39.348Z,20.90
2022-10-20T23:17:42.672Z,13.90
2022-10-20T23:22:48.117Z,19.10
2022-10-20T23:27:50.867Z,21.00
2022-10-20T23:32:53.573Z,20.40
2022-10-20T23:37:56.391Z,15.30
2022-10-20T23:42:59.120Z,14.80
2022-10-20T23:48:01.865Z,9.10
2022-10-20T23:53:04.570Z,9.80
2022-10-20T23:58:07.379Z,9.00
